sensor_id;sensor_type;location;lat;lon;timestamp;P1;durP1;ratioP1;P2;durP2;ratioP2
4601;SDS011;2313;48.552;9.370;2024-03-06T00:00:53;19.43;;;12.30;;
4601;SDS011;2313;48.552;9.370;2024-03-06T00:03:19;12.87;;;10.03;;
4601;SDS011;2313;48.552;9.370;2024-03-06T00:05:45;14.70;;;9.43;;
4601;SDS011;2313;48.552;9.370;2024-03-06T00:08:10;9.00;;;7.93;;
4601;SDS011;2313;48.552;9.370;2024-03-06T00:10:36;7.53;;;6.63;;
4601;SDS011;2313;48.552;9.370;2024-03-06T00:13:01;8.70;;;4.63;;
4601;SDS011;2313;48.552;9.370;2024-03-06T00:15:27;5.43;;;4.30;;
4601;SDS011;2313;48.552;9.370;2024-03-06T00:17:52;7.90;;;5.10;;
4601;SDS011;2313;48.552;9.370;2024-03-06T00:20:18;6.20;;;4.83;;
4601;SDS011;2313;48.552;9.370;2024-03-06T00:22:44;5.73;;;4.23;;
4601;SDS011;2313;48.552;9.370;2024-03-06T00:25:09;6.73;;;4.37;;
4601;SDS011;2313;48.552;9.370;2024-03-06T00:27:35;4.80;;;3.70;;
4601;SDS011;2313;48.552;9.370;2024-03-06T00:30:00;7.23;;;4.13;;
4601;SDS011;2313;48.552;9.370;2024-03-06T00:32:26;6.80;;;4.67;;
4601;SDS011;2313;48.552;9.370;2024-03-06T00:34:53;6.30;;;4.17;;
4601;SDS011;2313;48.552;9.370;2024-03-06T00:37:19;4.50;;;4.07;;
4601;SDS011;2313;48.552;9.370;2024-03-06T00:39:44;4.40;;;3.00;;
4601;SDS011;2313;48.552;9.370;2024-03-06T00:42:10;4.70;;;4.00;;
4601;SDS011;2313;48.552;9.370;2024-03-06T00:44:38;5.70;;;4.67;;
4601;SDS011;2313;48.552;9.370;2024-03-06T00:47:04;4.90;;;3.80;;
4601;SDS011;2313;48.552;9.370;2024-03-06T00:49:29;5.80;;;5.20;;
4601;SDS011;2313;48.552;9.370;2024-03-06T00:51:55;8.77;;;7.27;;
4601;SDS011;2313;48.552;9.370;2024-03-06T00:54:20;12.20;;;6.70;;
4601;SDS011;2313;48.552;9.370;2024-03-06T00:56:46;9.60;;;6.90;;
4601;SDS011;2313;48.552;9.370;2024-03-06T00:59:11;7.80;;;7.00;;
4601;SDS011;2313;48.552;9.370;2024-03-06T01:01:38;8.00;;;6.73;;
4601;SDS011;2313;48.552;9.370;2024-03-06T01:04:03;8.87;;;6.43;;
4601;SDS011;2313;48.552;9.370;2024-03-06T01:06:29;6.77;;;6.07;;
4601;SDS011;2313;48.552;9.370;2024-03-06T01:08:55;8.77;;;7.17;;
4601;SDS011;2313;48.552;9.370;2024-03-06T01:11:22;13.53;;;7.27;;
4601;SDS011;2313;48.552;9.370;2024-03-06T01:13:47;8.70;;;6.47;;
4601;SDS011;2313;48.552;9.370;2024-03-06T01:16:14;7.23;;;5.50;;
4601;SDS011;2313;48.552;9.370;2024-03-06T01:18:39;11.90;;;7.37;;
4601;SDS011;2313;48.552;9.370;2024-03-06T01:21:05;6.20;;;5.13;;
4601;SDS011;2313;48.552;9.370;2024-03-06T01:23:30;7.20;;;5.70;;
4601;SDS011;2313;48.552;9.370;2024-03-06T01:25:56;7.70;;;5.67;;
4601;SDS011;2313;48.552;9.370;2024-03-06T01:28:21;10.33;;;5.87;;
4601;SDS011;2313;48.552;9.370;2024-03-06T01:30:47;9.70;;;5.73;;
4601;SDS011;2313;48.552;9.370;2024-03-06T01:33:13;8.47;;;6.20;;
4601;SDS011;2313;48.552;9.370;2024-03-06T01:35:38;11.00;;;6.00;;
4601;SDS011;2313;48.552;9.370;2024-03-06T01:38:04;7.53;;;4.40;;
4601;SDS011;2313;48.552;9.370;2024-03-06T01:40:30;8.83;;;4.40;;
4601;SDS011;2313;48.552;9.370;2024-03-06T01:42:56;6.70;;;4.97;;
4601;SDS011;2313;48.552;9.370;2024-03-06T01:45:22;7.03;;;3.93;;
4601;SDS011;2313;48.552;9.370;2024-03-06T01:47:47;4.93;;;4.33;;
4601;SDS011;2313;48.552;9.370;2024-03-06T01:50:13;9.33;;;3.77;;
4601;SDS011;2313;48.552;9.370;2024-03-06T01:52:39;6.20;;;3.60;;
4601;SDS011;2313;48.552;9.370;2024-03-06T01:55:07;7.03;;;3.53;;
4601;SDS011;2313;48.552;9.370;2024-03-06T01:57:34;5.00;;;3.30;;
4601;SDS011;2313;48.552;9.370;2024-03-06T02:00:01;6.73;;;3.33;;
4601;SDS011;2313;48.552;9.370;2024-03-06T02:02:28;4.53;;;2.90;;
4601;SDS011;2313;48.552;9.370;2024-03-06T02:04:54;6.37;;;2.90;;
4601;SDS011;2313;48.552;9.370;2024-03-06T02:07:22;7.73;;;3.03;;
4601;SDS011;2313;48.552;9.370;2024-03-06T02:09:49;5.77;;;3.23;;
4601;SDS011;2313;48.552;9.370;2024-03-06T02:12:14;4.83;;;2.87;;
4601;SDS011;2313;48.552;9.370;2024-03-06T02:14:41;3.47;;;3.17;;
4601;SDS011;2313;48.552;9.370;2024-03-06T02:17:06;3.77;;;2.80;;
4601;SDS011;2313;48.552;9.370;2024-03-06T02:19:39;4.90;;;2.80;;
4601;SDS011;2313;48.552;9.370;2024-03-06T02:22:06;6.47;;;2.93;;
4601;SDS011;2313;48.552;9.370;2024-03-06T02:24:32;6.43;;;3.60;;
4601;SDS011;2313;48.552;9.370;2024-03-06T02:26:58;5.70;;;3.90;;
4601;SDS011;2313;48.552;9.370;2024-03-06T02:29:24;5.33;;;3.90;;
4601;SDS011;2313;48.552;9.370;2024-03-06T02:31:49;4.70;;;3.37;;
4601;SDS011;2313;48.552;9.370;2024-03-06T02:34:15;3.73;;;3.40;;
4601;SDS011;2313;48.552;9.370;2024-03-06T02:36:40;4.67;;;3.33;;
4601;SDS011;2313;48.552;9.370;2024-03-06T02:39:07;6.50;;;4.77;;
4601;SDS011;2313;48.552;9.370;2024-03-06T02:41:34;6.60;;;3.73;;
4601;SDS011;2313;48.552;9.370;2024-03-06T02:44:01;6.17;;;3.30;;
4601;SDS011;2313;48.552;9.370;2024-03-06T02:46:27;5.73;;;3.73;;
4601;SDS011;2313;48.552;9.370;2024-03-06T02:48:53;6.33;;;3.40;;
4601;SDS011;2313;48.552;9.370;2024-03-06T02:51:19;6.53;;;3.13;;
4601;SDS011;2313;48.552;9.370;2024-03-06T02:53:45;4.10;;;3.27;;
4601;SDS011;2313;48.552;9.370;2024-03-06T02:56:17;5.00;;;3.50;;
4601;SDS011;2313;48.552;9.370;2024-03-06T02:58:44;4.17;;;3.43;;
4601;SDS011;2313;48.552;9.370;2024-03-06T03:01:10;8.37;;;3.37;;
4601;SDS011;2313;48.552;9.370;2024-03-06T03:03:36;7.33;;;3.77;;
4601;SDS011;2313;48.552;9.370;2024-03-06T03:06:02;3.70;;;3.40;;
4601;SDS011;2313;48.552;9.370;2024-03-06T03:08:28;4.73;;;3.73;;
4601;SDS011;2313;48.552;9.370;2024-03-06T03:10:53;9.33;;;3.77;;
4601;SDS011;2313;48.552;9.370;2024-03-06T03:13:20;4.03;;;3.50;;
4601;SDS011;2313;48.552;9.370;2024-03-06T03:15:46;5.93;;;4.07;;
4601;SDS011;2313;48.552;9.370;2024-03-06T03:18:13;5.30;;;3.90;;
4601;SDS011;2313;48.552;9.370;2024-03-06T03:20:38;7.60;;;4.57;;
4601;SDS011;2313;48.552;9.370;2024-03-06T03:23:04;7.90;;;4.27;;
4601;SDS011;2313;48.552;9.370;2024-03-06T03:25:31;4.30;;;3.70;;
4601;SDS011;2313;48.552;9.370;2024-03-06T03:27:58;9.23;;;4.30;;
4601;SDS011;2313;48.552;9.370;2024-03-06T03:30:24;8.03;;;4.13;;
4601;SDS011;2313;48.552;9.370;2024-03-06T03:32:49;4.83;;;4.00;;
4601;SDS011;2313;48.552;9.370;2024-03-06T03:35:15;4.77;;;3.53;;
4601;SDS011;2313;48.552;9.370;2024-03-06T03:37:42;7.50;;;4.50;;
4601;SDS011;2313;48.552;9.370;2024-03-06T03:40:09;5.17;;;4.40;;
4601;SDS011;2313;48.552;9.370;2024-03-06T03:42:36;6.03;;;4.13;;
4601;SDS011;2313;48.552;9.370;2024-03-06T03:45:03;9.77;;;4.50;;
4601;SDS011;2313;48.552;9.370;2024-03-06T03:47:29;5.80;;;3.97;;
4601;SDS011;2313;48.552;9.370;2024-03-06T03:49:55;4.80;;;4.27;;
4601;SDS011;2313;48.552;9.370;2024-03-06T03:52:21;5.23;;;4.53;;
4601;SDS011;2313;48.552;9.370;2024-03-06T03:54:47;15.10;;;5.17;;
4601;SDS011;2313;48.552;9.370;2024-03-06T03:57:13;6.90;;;5.10;;
4601;SDS011;2313;48.552;9.370;2024-03-06T03:59:39;6.50;;;4.93;;
4601;SDS011;2313;48.552;9.370;2024-03-06T04:02:06;5.17;;;4.67;;
4601;SDS011;2313;48.552;9.370;2024-03-06T04:04:31;7.93;;;4.80;;
4601;SDS011;2313;48.552;9.370;2024-03-06T04:06:58;6.60;;;5.10;;
4601;SDS011;2313;48.552;9.370;2024-03-06T04:09:26;5.57;;;5.07;;
4601;SDS011;2313;48.552;9.370;2024-03-06T04:11:52;8.00;;;5.50;;
4601;SDS011;2313;48.552;9.370;2024-03-06T04:14:18;9.00;;;6.30;;
4601;SDS011;2313;48.552;9.370;2024-03-06T04:16:45;5.05;;;4.35;;
4601;SDS011;2313;48.552;9.370;2024-03-06T04:19:11;5.20;;;4.70;;
4601;SDS011;2313;48.552;9.370;2024-03-06T04:21:43;8.23;;;5.40;;
4601;SDS011;2313;48.552;9.370;2024-03-06T04:24:09;6.33;;;5.00;;
4601;SDS011;2313;48.552;9.370;2024-03-06T04:26:35;8.57;;;5.93;;
4601;SDS011;2313;48.552;9.370;2024-03-06T04:29:00;5.50;;;4.60;;
4601;SDS011;2313;48.552;9.370;2024-03-06T04:31:27;11.73;;;5.83;;
4601;SDS011;2313;48.552;9.370;2024-03-06T04:33:53;10.93;;;5.57;;
4601;SDS011;2313;48.552;9.370;2024-03-06T04:36:19;8.43;;;5.53;;
4601;SDS011;2313;48.552;9.370;2024-03-06T04:38:44;10.83;;;6.10;;
4601;SDS011;2313;48.552;9.370;2024-03-06T04:41:10;8.33;;;5.27;;
4601;SDS011;2313;48.552;9.370;2024-03-06T04:43:36;11.30;;;6.77;;
4601;SDS011;2313;48.552;9.370;2024-03-06T04:46:01;9.20;;;5.80;;
4601;SDS011;2313;48.552;9.370;2024-03-06T04:48:27;10.90;;;5.70;;
4601;SDS011;2313;48.552;9.370;2024-03-06T04:50:53;6.43;;;5.80;;
4601;SDS011;2313;48.552;9.370;2024-03-06T04:53:19;10.10;;;5.90;;
4601;SDS011;2313;48.552;9.370;2024-03-06T04:55:45;10.43;;;6.70;;
4601;SDS011;2313;48.552;9.370;2024-03-06T04:58:11;6.53;;;5.60;;
4601;SDS011;2313;48.552;9.370;2024-03-06T05:00:37;8.80;;;5.70;;
4601;SDS011;2313;48.552;9.370;2024-03-06T05:03:03;12.80;;;7.30;;
4601;SDS011;2313;48.552;9.370;2024-03-06T05:05:28;13.90;;;6.83;;
4601;SDS011;2313;48.552;9.370;2024-03-06T05:07:54;9.63;;;6.20;;
4601;SDS011;2313;48.552;9.370;2024-03-06T05:10:20;9.10;;;6.47;;
4601;SDS011;2313;48.552;9.370;2024-03-06T05:12:46;8.97;;;5.97;;
4601;SDS011;2313;48.552;9.370;2024-03-06T05:15:13;9.53;;;6.97;;
4601;SDS011;2313;48.552;9.370;2024-03-06T05:17:39;13.50;;;7.70;;
4601;SDS011;2313;48.552;9.370;2024-03-06T05:20:04;11.00;;;7.43;;
4601;SDS011;2313;48.552;9.370;2024-03-06T05:22:31;9.30;;;7.23;;
4601;SDS011;2313;48.552;9.370;2024-03-06T05:24:56;11.17;;;8.13;;
4601;SDS011;2313;48.552;9.370;2024-03-06T05:27:23;9.30;;;7.50;;
4601;SDS011;2313;48.552;9.370;2024-03-06T05:29:49;12.63;;;8.20;;
4601;SDS011;2313;48.552;9.370;2024-03-06T05:32:14;9.83;;;6.93;;
4601;SDS011;2313;48.552;9.370;2024-03-06T05:34:40;12.97;;;8.53;;
4601;SDS011;2313;48.552;9.370;2024-03-06T05:37:06;14.13;;;8.57;;
4601;SDS011;2313;48.552;9.370;2024-03-06T05:39:32;13.83;;;8.03;;
4601;SDS011;2313;48.552;9.370;2024-03-06T05:42:02;12.80;;;8.43;;
4601;SDS011;2313;48.552;9.370;2024-03-06T05:44:29;13.03;;;8.30;;
4601;SDS011;2313;48.552;9.370;2024-03-06T05:50:17;9.67;;;7.73;;
4601;SDS011;2313;48.552;9.370;2024-03-06T05:52:43;10.77;;;7.90;;
4601;SDS011;2313;48.552;9.370;2024-03-06T05:55:09;12.63;;;7.27;;
4601;SDS011;2313;48.552;9.370;2024-03-06T05:57:35;10.53;;;6.57;;
4601;SDS011;2313;48.552;9.370;2024-03-06T06:00:00;13.33;;;7.97;;
4601;SDS011;2313;48.552;9.370;2024-03-06T06:02:27;20.00;;;7.97;;
4601;SDS011;2313;48.552;9.370;2024-03-06T06:04:53;10.60;;;6.90;;
4601;SDS011;2313;48.552;9.370;2024-03-06T06:07:18;11.00;;;7.63;;
4601;SDS011;2313;48.552;9.370;2024-03-06T06:09:44;8.50;;;6.77;;
4601;SDS011;2313;48.552;9.370;2024-03-06T06:12:10;8.37;;;6.50;;
4601;SDS011;2313;48.552;9.370;2024-03-06T06:14:35;10.97;;;6.40;;
4601;SDS011;2313;48.552;9.370;2024-03-06T06:17:01;10.43;;;7.07;;
4601;SDS011;2313;48.552;9.370;2024-03-06T06:19:27;11.40;;;7.40;;
4601;SDS011;2313;48.552;9.370;2024-03-06T06:21:54;10.00;;;6.70;;
4601;SDS011;2313;48.552;9.370;2024-03-06T06:24:19;12.10;;;7.10;;
4601;SDS011;2313;48.552;9.370;2024-03-06T06:26:45;10.77;;;6.77;;
4601;SDS011;2313;48.552;9.370;2024-03-06T06:29:11;15.30;;;7.00;;
4601;SDS011;2313;48.552;9.370;2024-03-06T06:31:36;11.33;;;6.63;;
4601;SDS011;2313;48.552;9.370;2024-03-06T06:34:02;9.73;;;6.77;;
4601;SDS011;2313;48.552;9.370;2024-03-06T06:36:28;10.80;;;7.83;;
4601;SDS011;2313;48.552;9.370;2024-03-06T06:38:54;10.87;;;6.83;;
4601;SDS011;2313;48.552;9.370;2024-03-06T06:41:20;9.27;;;6.43;;
4601;SDS011;2313;48.552;9.370;2024-03-06T06:43:45;13.10;;;8.00;;
4601;SDS011;2313;48.552;9.370;2024-03-06T06:46:11;17.03;;;8.67;;
4601;SDS011;2313;48.552;9.370;2024-03-06T06:48:37;14.00;;;8.80;;
4601;SDS011;2313;48.552;9.370;2024-03-06T06:51:03;13.80;;;8.10;;
4601;SDS011;2313;48.552;9.370;2024-03-06T06:53:31;12.33;;;8.23;;
4601;SDS011;2313;48.552;9.370;2024-03-06T06:55:57;13.10;;;8.77;;
4601;SDS011;2313;48.552;9.370;2024-03-06T06:58:23;10.50;;;8.30;;
4601;SDS011;2313;48.552;9.370;2024-03-06T07:00:49;11.70;;;7.53;;
4601;SDS011;2313;48.552;9.370;2024-03-06T07:03:15;15.60;;;9.50;;
4601;SDS011;2313;48.552;9.370;2024-03-06T07:05:41;11.23;;;7.83;;
4601;SDS011;2313;48.552;9.370;2024-03-06T07:08:07;14.07;;;7.63;;
4601;SDS011;2313;48.552;9.370;2024-03-06T07:10:33;17.20;;;8.20;;
4601;SDS011;2313;48.552;9.370;2024-03-06T07:13:00;9.53;;;6.93;;
4601;SDS011;2313;48.552;9.370;2024-03-06T07:15:27;13.20;;;8.50;;
4601;SDS011;2313;48.552;9.370;2024-03-06T07:17:53;12.07;;;8.60;;
4601;SDS011;2313;48.552;9.370;2024-03-06T07:20:19;11.73;;;8.87;;
4601;SDS011;2313;48.552;9.370;2024-03-06T07:22:44;18.10;;;8.53;;
4601;SDS011;2313;48.552;9.370;2024-03-06T07:25:10;18.10;;;8.80;;
4601;SDS011;2313;48.552;9.370;2024-03-06T07:27:36;12.03;;;8.53;;
4601;SDS011;2313;48.552;9.370;2024-03-06T07:30:01;16.87;;;9.27;;
4601;SDS011;2313;48.552;9.370;2024-03-06T07:32:27;14.07;;;8.87;;
4601;SDS011;2313;48.552;9.370;2024-03-06T07:34:53;15.83;;;7.70;;
4601;SDS011;2313;48.552;9.370;2024-03-06T07:37:18;17.57;;;9.43;;
4601;SDS011;2313;48.552;9.370;2024-03-06T07:39:44;16.30;;;10.20;;
4601;SDS011;2313;48.552;9.370;2024-03-06T07:42:10;11.40;;;8.90;;
4601;SDS011;2313;48.552;9.370;2024-03-06T07:44:36;15.37;;;9.93;;
4601;SDS011;2313;48.552;9.370;2024-03-06T07:47:02;15.80;;;8.93;;
4601;SDS011;2313;48.552;9.370;2024-03-06T07:49:28;18.73;;;10.00;;
4601;SDS011;2313;48.552;9.370;2024-03-06T07:51:54;18.50;;;9.20;;
4601;SDS011;2313;48.552;9.370;2024-03-06T07:54:20;12.90;;;9.03;;
4601;SDS011;2313;48.552;9.370;2024-03-06T07:56:45;16.90;;;11.73;;
4601;SDS011;2313;48.552;9.370;2024-03-06T07:59:12;17.93;;;10.07;;
4601;SDS011;2313;48.552;9.370;2024-03-06T08:01:38;18.23;;;10.80;;
4601;SDS011;2313;48.552;9.370;2024-03-06T08:04:05;16.17;;;9.97;;
4601;SDS011;2313;48.552;9.370;2024-03-06T08:06:30;19.13;;;11.80;;
4601;SDS011;2313;48.552;9.370;2024-03-06T08:08:58;14.23;;;9.63;;
4601;SDS011;2313;48.552;9.370;2024-03-06T08:11:24;25.50;;;11.07;;
4601;SDS011;2313;48.552;9.370;2024-03-06T08:13:50;18.20;;;11.43;;
4601;SDS011;2313;48.552;9.370;2024-03-06T08:16:21;15.30;;;9.33;;
4601;SDS011;2313;48.552;9.370;2024-03-06T08:18:47;20.23;;;12.90;;
4601;SDS011;2313;48.552;9.370;2024-03-06T08:21:12;14.77;;;9.43;;
4601;SDS011;2313;48.552;9.370;2024-03-06T08:23:38;15.50;;;11.20;;
4601;SDS011;2313;48.552;9.370;2024-03-06T08:26:04;15.50;;;10.10;;
4601;SDS011;2313;48.552;9.370;2024-03-06T08:28:29;20.03;;;9.90;;
4601;SDS011;2313;48.552;9.370;2024-03-06T08:30:55;25.60;;;11.90;;
4601;SDS011;2313;48.552;9.370;2024-03-06T08:33:21;14.90;;;10.00;;
4601;SDS011;2313;48.552;9.370;2024-03-06T08:35:47;20.87;;;11.17;;
4601;SDS011;2313;48.552;9.370;2024-03-06T08:38:13;20.60;;;12.13;;
4601;SDS011;2313;48.552;9.370;2024-03-06T08:40:39;20.43;;;11.83;;
4601;SDS011;2313;48.552;9.370;2024-03-06T08:43:06;18.70;;;11.50;;
4601;SDS011;2313;48.552;9.370;2024-03-06T08:45:35;21.53;;;11.80;;
4601;SDS011;2313;48.552;9.370;2024-03-06T08:48:00;18.30;;;12.57;;
4601;SDS011;2313;48.552;9.370;2024-03-06T08:50:26;18.83;;;11.17;;
4601;SDS011;2313;48.552;9.370;2024-03-06T08:52:51;23.93;;;12.90;;
4601;SDS011;2313;48.552;9.370;2024-03-06T08:55:17;23.43;;;13.53;;
4601;SDS011;2313;48.552;9.370;2024-03-06T08:57:43;16.87;;;11.50;;
4601;SDS011;2313;48.552;9.370;2024-03-06T09:00:08;21.27;;;12.53;;
4601;SDS011;2313;48.552;9.370;2024-03-06T09:02:35;19.60;;;12.93;;
4601;SDS011;2313;48.552;9.370;2024-03-06T09:05:03;17.77;;;11.83;;
4601;SDS011;2313;48.552;9.370;2024-03-06T09:07:32;21.33;;;13.47;;
4601;SDS011;2313;48.552;9.370;2024-03-06T09:10:02;24.70;;;13.80;;
4601;SDS011;2313;48.552;9.370;2024-03-06T09:12:31;22.73;;;13.47;;
4601;SDS011;2313;48.552;9.370;2024-03-06T09:14:57;20.60;;;12.50;;
4601;SDS011;2313;48.552;9.370;2024-03-06T09:17:25;15.83;;;12.13;;
4601;SDS011;2313;48.552;9.370;2024-03-06T09:19:51;19.70;;;12.70;;
4601;SDS011;2313;48.552;9.370;2024-03-06T09:22:17;18.13;;;11.70;;
4601;SDS011;2313;48.552;9.370;2024-03-06T09:24:42;25.10;;;14.03;;
4601;SDS011;2313;48.552;9.370;2024-03-06T09:27:08;25.77;;;14.57;;
4601;SDS011;2313;48.552;9.370;2024-03-06T09:29:34;23.93;;;12.90;;
4601;SDS011;2313;48.552;9.370;2024-03-06T09:31:59;21.73;;;13.60;;
4601;SDS011;2313;48.552;9.370;2024-03-06T09:34:25;23.90;;;14.60;;
4601;SDS011;2313;48.552;9.370;2024-03-06T09:36:51;25.47;;;15.77;;
4601;SDS011;2313;48.552;9.370;2024-03-06T09:39:17;19.20;;;13.83;;
4601;SDS011;2313;48.552;9.370;2024-03-06T09:41:48;19.10;;;13.47;;
4601;SDS011;2313;48.552;9.370;2024-03-06T09:44:15;20.40;;;14.20;;
4601;SDS011;2313;48.552;9.370;2024-03-06T09:46:46;21.67;;;15.30;;
4601;SDS011;2313;48.552;9.370;2024-03-06T09:49:13;25.97;;;13.10;;
4601;SDS011;2313;48.552;9.370;2024-03-06T09:51:42;21.33;;;14.03;;
4601;SDS011;2313;48.552;9.370;2024-03-06T09:54:12;24.97;;;14.90;;
4601;SDS011;2313;48.552;9.370;2024-03-06T09:56:42;24.40;;;13.83;;
4601;SDS011;2313;48.552;9.370;2024-03-06T09:59:08;25.17;;;14.67;;
4601;SDS011;2313;48.552;9.370;2024-03-06T10:01:35;20.00;;;13.13;;
4601;SDS011;2313;48.552;9.370;2024-03-06T10:04:21;19.33;;;12.37;;
4601;SDS011;2313;48.552;9.370;2024-03-06T10:06:55;21.00;;;14.67;;
4601;SDS011;2313;48.552;9.370;2024-03-06T10:09:22;20.90;;;14.20;;
4601;SDS011;2313;48.552;9.370;2024-03-06T10:11:48;17.93;;;13.10;;
4601;SDS011;2313;48.552;9.370;2024-03-06T10:14:14;18.83;;;13.77;;
4601;SDS011;2313;48.552;9.370;2024-03-06T10:16:53;21.87;;;12.47;;
4601;SDS011;2313;48.552;9.370;2024-03-06T10:19:23;26.07;;;14.93;;
4601;SDS011;2313;48.552;9.370;2024-03-06T10:21:52;31.17;;;14.63;;
4601;SDS011;2313;48.552;9.370;2024-03-06T10:24:19;21.77;;;13.40;;
4601;SDS011;2313;48.552;9.370;2024-03-06T10:26:49;23.87;;;13.93;;
4601;SDS011;2313;48.552;9.370;2024-03-06T10:29:17;27.60;;;15.00;;
4601;SDS011;2313;48.552;9.370;2024-03-06T10:32:01;22.80;;;13.90;;
4601;SDS011;2313;48.552;9.370;2024-03-06T10:34:28;20.93;;;14.63;;
4601;SDS011;2313;48.552;9.370;2024-03-06T10:36:57;20.63;;;12.40;;
4601;SDS011;2313;48.552;9.370;2024-03-06T10:39:24;22.40;;;12.50;;
4601;SDS011;2313;48.552;9.370;2024-03-06T10:41:54;24.53;;;13.47;;
4601;SDS011;2313;48.552;9.370;2024-03-06T10:44:22;19.67;;;13.83;;
4601;SDS011;2313;48.552;9.370;2024-03-06T10:46:51;24.20;;;13.60;;
4601;SDS011;2313;48.552;9.370;2024-03-06T10:49:29;22.40;;;14.00;;
4601;SDS011;2313;48.552;9.370;2024-03-06T10:51:58;20.60;;;13.27;;
4601;SDS011;2313;48.552;9.370;2024-03-06T10:54:28;18.77;;;12.60;;
4601;SDS011;2313;48.552;9.370;2024-03-06T10:56:55;27.87;;;13.30;;
4601;SDS011;2313;48.552;9.370;2024-03-06T10:59:23;25.63;;;13.37;;
4601;SDS011;2313;48.552;9.370;2024-03-06T11:01:54;18.97;;;13.40;;
4601;SDS011;2313;48.552;9.370;2024-03-06T11:04:21;27.53;;;15.17;;
4601;SDS011;2313;48.552;9.370;2024-03-06T11:06:53;22.20;;;13.73;;
4601;SDS011;2313;48.552;9.370;2024-03-06T11:09:20;27.53;;;15.50;;
4601;SDS011;2313;48.552;9.370;2024-03-06T11:11:49;22.20;;;13.10;;
4601;SDS011;2313;48.552;9.370;2024-03-06T11:14:22;24.30;;;13.83;;
4601;SDS011;2313;48.552;9.370;2024-03-06T11:19:30;19.07;;;13.13;;
4601;SDS011;2313;48.552;9.370;2024-03-06T11:21:57;19.50;;;12.43;;
4601;SDS011;2313;48.552;9.370;2024-03-06T11:24:32;20.10;;;12.80;;
4601;SDS011;2313;48.552;9.370;2024-03-06T11:27:02;19.83;;;13.77;;
4601;SDS011;2313;48.552;9.370;2024-03-06T11:30:03;22.67;;;13.90;;
4601;SDS011;2313;48.552;9.370;2024-03-06T11:32:59;22.90;;;13.83;;
4601;SDS011;2313;48.552;9.370;2024-03-06T11:35:29;19.30;;;13.90;;
4601;SDS011;2313;48.552;9.370;2024-03-06T11:37:55;23.17;;;12.90;;
4601;SDS011;2313;48.552;9.370;2024-03-06T11:40:24;17.37;;;12.60;;
4601;SDS011;2313;48.552;9.370;2024-03-06T11:42:50;24.03;;;12.33;;
4601;SDS011;2313;48.552;9.370;2024-03-06T11:45:17;18.93;;;13.43;;
4601;SDS011;2313;48.552;9.370;2024-03-06T11:47:57;23.07;;;12.30;;
4601;SDS011;2313;48.552;9.370;2024-03-06T11:50:23;16.20;;;11.80;;
4601;SDS011;2313;48.552;9.370;2024-03-06T11:52:50;23.10;;;13.93;;
4601;SDS011;2313;48.552;9.370;2024-03-06T11:55:16;18.00;;;12.90;;
4601;SDS011;2313;48.552;9.370;2024-03-06T11:57:42;15.00;;;11.30;;
4601;SDS011;2313;48.552;9.370;2024-03-06T12:00:08;21.97;;;12.37;;
4601;SDS011;2313;48.552;9.370;2024-03-06T12:02:36;14.97;;;10.90;;
4601;SDS011;2313;48.552;9.370;2024-03-06T12:05:02;17.03;;;11.97;;
4601;SDS011;2313;48.552;9.370;2024-03-06T12:07:30;16.10;;;12.83;;
4601;SDS011;2313;48.552;9.370;2024-03-06T12:09:56;16.57;;;11.40;;
4601;SDS011;2313;48.552;9.370;2024-03-06T12:12:23;19.03;;;12.40;;
4601;SDS011;2313;48.552;9.370;2024-03-06T12:14:58;15.27;;;11.83;;
4601;SDS011;2313;48.552;9.370;2024-03-06T12:17:25;16.57;;;11.07;;
4601;SDS011;2313;48.552;9.370;2024-03-06T12:19:51;16.93;;;11.47;;
4601;SDS011;2313;48.552;9.370;2024-03-06T12:22:20;17.43;;;11.03;;
4601;SDS011;2313;48.552;9.370;2024-03-06T12:24:59;20.20;;;11.30;;
4601;SDS011;2313;48.552;9.370;2024-03-06T12:27:25;15.00;;;10.10;;
4601;SDS011;2313;48.552;9.370;2024-03-06T12:29:52;21.40;;;11.57;;
4601;SDS011;2313;48.552;9.370;2024-03-06T12:32:18;15.83;;;12.13;;
4601;SDS011;2313;48.552;9.370;2024-03-06T12:34:44;16.23;;;11.80;;
4601;SDS011;2313;48.552;9.370;2024-03-06T12:37:10;15.93;;;12.03;;
4601;SDS011;2313;48.552;9.370;2024-03-06T12:39:36;19.30;;;12.20;;
4601;SDS011;2313;48.552;9.370;2024-03-06T12:42:01;15.70;;;11.87;;
4601;SDS011;2313;48.552;9.370;2024-03-06T12:44:27;17.10;;;11.70;;
4601;SDS011;2313;48.552;9.370;2024-03-06T12:46:52;19.67;;;13.80;;
4601;SDS011;2313;48.552;9.370;2024-03-06T12:49:18;18.30;;;12.77;;
4601;SDS011;2313;48.552;9.370;2024-03-06T12:51:43;19.90;;;12.77;;
4601;SDS011;2313;48.552;9.370;2024-03-06T12:54:09;17.17;;;12.50;;
4601;SDS011;2313;48.552;9.370;2024-03-06T12:56:35;17.90;;;13.03;;
4601;SDS011;2313;48.552;9.370;2024-03-06T12:59:01;19.63;;;14.13;;
4601;SDS011;2313;48.552;9.370;2024-03-06T13:01:26;19.87;;;14.63;;
4601;SDS011;2313;48.552;9.370;2024-03-06T13:03:52;21.60;;;15.67;;
4601;SDS011;2313;48.552;9.370;2024-03-06T13:06:17;22.73;;;14.43;;
4601;SDS011;2313;48.552;9.370;2024-03-06T13:08:43;26.87;;;15.50;;
4601;SDS011;2313;48.552;9.370;2024-03-06T13:11:09;23.00;;;17.10;;
4601;SDS011;2313;48.552;9.370;2024-03-06T13:13:34;25.00;;;16.23;;
4601;SDS011;2313;48.552;9.370;2024-03-06T13:16:00;19.50;;;14.20;;
4601;SDS011;2313;48.552;9.370;2024-03-06T13:18:26;28.10;;;17.20;;
4601;SDS011;2313;48.552;9.370;2024-03-06T13:20:51;29.17;;;18.70;;
4601;SDS011;2313;48.552;9.370;2024-03-06T13:23:17;24.73;;;17.10;;
4601;SDS011;2313;48.552;9.370;2024-03-06T13:25:43;27.37;;;18.60;;
4601;SDS011;2313;48.552;9.370;2024-03-06T13:28:10;27.23;;;19.20;;
4601;SDS011;2313;48.552;9.370;2024-03-06T13:30:37;25.77;;;18.10;;
4601;SDS011;2313;48.552;9.370;2024-03-06T13:33:04;31.20;;;18.17;;
4601;SDS011;2313;48.552;9.370;2024-03-06T13:35:30;29.87;;;19.00;;
4601;SDS011;2313;48.552;9.370;2024-03-06T13:37:56;27.90;;;18.80;;
4601;SDS011;2313;48.552;9.370;2024-03-06T13:40:21;27.97;;;18.50;;
4601;SDS011;2313;48.552;9.370;2024-03-06T13:42:47;32.10;;;20.53;;
4601;SDS011;2313;48.552;9.370;2024-03-06T13:45:12;29.67;;;19.10;;
4601;SDS011;2313;48.552;9.370;2024-03-06T13:47:39;28.80;;;19.50;;
4601;SDS011;2313;48.552;9.370;2024-03-06T13:50:13;29.90;;;19.57;;
4601;SDS011;2313;48.552;9.370;2024-03-06T13:52:40;27.77;;;19.07;;
4601;SDS011;2313;48.552;9.370;2024-03-06T13:55:06;33.93;;;19.80;;
4601;SDS011;2313;48.552;9.370;2024-03-06T13:57:33;32.00;;;19.73;;
4601;SDS011;2313;48.552;9.370;2024-03-06T14:00:00;29.10;;;20.40;;
4601;SDS011;2313;48.552;9.370;2024-03-06T14:02:30;33.43;;;20.97;;
4601;SDS011;2313;48.552;9.370;2024-03-06T14:04:57;29.07;;;19.23;;
4601;SDS011;2313;48.552;9.370;2024-03-06T14:07:23;26.40;;;18.67;;
4601;SDS011;2313;48.552;9.370;2024-03-06T14:09:52;29.27;;;20.17;;
4601;SDS011;2313;48.552;9.370;2024-03-06T14:12:17;30.20;;;19.77;;
4601;SDS011;2313;48.552;9.370;2024-03-06T14:14:43;32.57;;;20.50;;
4601;SDS011;2313;48.552;9.370;2024-03-06T14:17:12;26.87;;;19.20;;
4601;SDS011;2313;48.552;9.370;2024-03-06T14:19:38;31.43;;;19.57;;
4601;SDS011;2313;48.552;9.370;2024-03-06T14:22:05;27.83;;;17.70;;
4601;SDS011;2313;48.552;9.370;2024-03-06T14:24:33;29.47;;;19.30;;
4601;SDS011;2313;48.552;9.370;2024-03-06T14:27:00;33.40;;;19.33;;
4601;SDS011;2313;48.552;9.370;2024-03-06T14:29:26;38.10;;;22.70;;
4601;SDS011;2313;48.552;9.370;2024-03-06T14:31:53;45.50;;;24.40;;
4601;SDS011;2313;48.552;9.370;2024-03-06T14:34:19;38.27;;;23.60;;
4601;SDS011;2313;48.552;9.370;2024-03-06T14:36:45;42.77;;;23.23;;
4601;SDS011;2313;48.552;9.370;2024-03-06T14:39:11;45.07;;;25.17;;
4601;SDS011;2313;48.552;9.370;2024-03-06T14:41:38;38.73;;;26.97;;
4601;SDS011;2313;48.552;9.370;2024-03-06T14:44:04;33.77;;;21.70;;
4601;SDS011;2313;48.552;9.370;2024-03-06T14:46:30;40.27;;;22.67;;
4601;SDS011;2313;48.552;9.370;2024-03-06T14:48:55;29.27;;;19.57;;
4601;SDS011;2313;48.552;9.370;2024-03-06T14:51:21;34.07;;;20.30;;
4601;SDS011;2313;48.552;9.370;2024-03-06T14:53:47;32.70;;;21.50;;
4601;SDS011;2313;48.552;9.370;2024-03-06T14:56:13;36.50;;;22.23;;
4601;SDS011;2313;48.552;9.370;2024-03-06T14:58:38;32.37;;;21.07;;
4601;SDS011;2313;48.552;9.370;2024-03-06T15:01:04;28.50;;;18.90;;
4601;SDS011;2313;48.552;9.370;2024-03-06T15:03:30;32.60;;;20.63;;